createdAt,value
2023-02-23T00:00:01.131Z,7.50
2023-02-23T00:03:01.583Z,6.60
2023-02-23T00:05:30.493Z,7.30
2023-02-23T00:08:18.097Z,7.40
2023-02-23T00:11:07.198Z,7.00
2023-02-23T00:13:56.904Z,6.60
2023-02-23T00:16:45.657Z,6.90
2023-02-23T00:19:37.947Z,6.60
2023-02-23T00:22:16.553Z,6.80
2023-02-23T00:25:07.863Z,7.50
2023-02-23T00:27:55.709Z,7.40
2023-02-23T00:30:24.074Z,6.90
2023-02-23T00:33:01.995Z,7.20
2023-02-23T00:35:31.794Z,6.80
2023-02-23T00:37:59.059Z,6.70
2023-02-23T00:40:46.988Z,7.50
2023-02-23T00:43:18.793Z,7.50
2023-02-23T00:46:08.767Z,7.30
2023-02-23T00:48:36.599Z,6.50
2023-02-23T00:51:27.047Z,6.90
2023-02-23T00:54:07.781Z,6.50
2023-02-23T00:56:35.636Z,7.00
2023-02-23T00:59:23.172Z,7.10
2023-02-23T01:02:11.150Z,6.90
2023-02-23T01:04:58.724Z,7.20
2023-02-23T01:07:29.278Z,6.60
2023-02-23T01:10:01.225Z,8.10
2023-02-23T01:12:41.470Z,7.40
2023-02-23T01:15:29.328Z,6.80
2023-02-23T01:18:18.311Z,6.50
2023-02-23T01:21:07.123Z,7.10
2023-02-23T01:23:35.401Z,7.20
2023-02-23T01:26:25.504Z,7.00
2023-02-23T01:28:57.249Z,7.20
2023-02-23T01:31:31.115Z,7.20
2023-02-23T01:34:09.572Z,7.00
2023-02-23T01:36:49.745Z,7.50
2023-02-23T01:39:37.491Z,7.10
2023-02-23T01:42:25.801Z,7.40
2023-02-23T01:45:27.805Z,7.40
2023-02-23T01:48:17.912Z,7.60
2023-02-23T01:51:01.188Z,7.80
2023-02-23T01:53:35.413Z,7.40
2023-02-23T01:56:11.772Z,7.20
2023-02-23T01:58:45.837Z,7.00
2023-02-23T02:01:16.651Z,7.80
2023-02-23T02:04:02.100Z,7.20
2023-02-23T02:06:54.134Z,7.40
2023-02-23T02:09:38.176Z,7.70
2023-02-23T02:12:26.630Z,8.10
2023-02-23T02:15:07.199Z,7.70
2023-02-23T02:17:48.407Z,8.00
2023-02-23T02:20:52.481Z,7.70
2023-02-23T02:23:57.263Z,7.90
2023-02-23T02:27:01.953Z,7.50
2023-02-23T02:30:16.207Z,7.70
2023-02-23T02:33:20.588Z,7.00
2023-02-23T02:36:41.127Z,8.00
2023-02-23T02:39:24.183Z,8.10
2023-02-23T02:42:32.682Z,8.00
2023-02-23T02:45:12.518Z,8.50
2023-02-23T02:47:47.703Z,8.50
2023-02-23T02:50:42.872Z,8.60
2023-02-23T02:53:41.355Z,8.50
2023-02-23T02:56:13.439Z,8.40
2023-02-23T02:58:44.271Z,7.70
2023-02-23T03:01:33.541Z,8.50
2023-02-23T03:04:42.484Z,8.40
2023-02-23T03:07:39.089Z,8.30
2023-02-23T03:10:33.318Z,8.20
2023-02-23T03:13:33.310Z,8.30
2023-02-23T03:16:32.714Z,9.00
2023-02-23T03:19:34.797Z,9.40
2023-02-23T03:22:45.350Z,9.00
2023-02-23T03:26:00.429Z,9.10
2023-02-23T03:28:55.407Z,9.50
2023-02-23T03:31:54.562Z,9.30
2023-02-23T03:34:51.102Z,9.70
2023-02-23T03:37:45.640Z,9.30
2023-02-23T03:40:45.749Z,9.10
2023-02-23T03:43:45.308Z,8.80
2023-02-23T03:46:42.857Z,8.50
2023-02-23T03:49:29.983Z,9.80
2023-02-23T03:52:22.727Z,9.10
2023-02-23T03:55:13.011Z,9.30
2023-02-23T03:58:20.302Z,8.90
2023-02-23T04:01:09.247Z,9.90
2023-02-23T04:04:17.994Z,9.10
2023-02-23T04:07:26.010Z,8.90
2023-02-23T04:10:14.657Z,9.30
2023-02-23T04:13:14.817Z,8.60
2023-02-23T04:15:44.420Z,9.50
2023-02-23T04:18:19.068Z,9.20
2023-02-23T04:20:58.342Z,8.80
2023-02-23T04:23:26.530Z,8.90
2023-02-23T04:25:59.756Z,8.30
2023-02-23T04:28:37.937Z,8.60
2023-02-23T04:31:26.222Z,8.60
2023-02-23T04:33:53.746Z,9.10
2023-02-23T04:36:24.993Z,8.00
2023-02-23T04:38:55.933Z,8.20
2023-02-23T04:41:23.188Z,8.90
2023-02-23T04:43:50.528Z,8.40
2023-02-23T04:46:20.482Z,8.10
2023-02-23T04:48:56.591Z,8.30
2023-02-23T04:51:31.017Z,7.80
2023-02-23T04:54:18.566Z,8.40
2023-02-23T04:57:06.703Z,7.90
2023-02-23T04:59:45.311Z,7.80
2023-02-23T05:02:21.828Z,8.20
2023-02-23T05:05:11.217Z,8.20
2023-02-23T05:07:58.992Z,7.40
2023-02-23T05:10:29.213Z,7.90
2023-02-23T05:13:01.444Z,8.80
2023-02-23T05:15:48.863Z,8.20
2023-02-23T05:18:19.387Z,7.80
2023-02-23T05:21:02.975Z,7.80
2023-02-23T05:23:36.830Z,8.50
2023-02-23T05:26:06.043Z,8.20
2023-02-23T05:28:43.297Z,8.50
2023-02-23T05:31:11.325Z,8.60
2023-02-23T05:33:46.014Z,8.90
2023-02-23T05:36:17.929Z,9.30
2023-02-23T05:38:49.434Z,8.20
2023-02-23T05:41:29.802Z,8.80
2023-02-23T05:44:17.977Z,8.30
2023-02-23T05:46:48.612Z,8.60
2023-02-23T05:49:19.653Z,8.40
2023-02-23T05:52:07.502Z,8.50
2023-02-23T05:54:55.550Z,8.20
2023-02-23T05:57:25.541Z,9.20
2023-02-23T05:59:52.797Z,8.70
2023-02-23T06:02:20.624Z,8.60
2023-02-23T06:04:51.298Z,8.60
2023-02-23T06:07:22.040Z,8.60
2023-02-23T06:09:52.479Z,8.10
2023-02-23T06:12:24.070Z,8.60
2023-02-23T06:14:53.622Z,8.40
2023-02-23T06:17:24.663Z,7.90
2023-02-23T06:19:55.296Z,8.30
2023-02-23T06:22:28.175Z,8.00
2023-02-23T06:25:12.746Z,7.70
2023-02-23T06:27:51.354Z,7.30
2023-02-23T06:30:20.200Z,8.30
2023-02-23T06:32:47.924Z,7.80
2023-02-23T06:35:18.393Z,7.00
2023-02-23T06:38:06.477Z,8.10
2023-02-23T06:40:47.361Z,7.50
2023-02-23T06:43:34.779Z,7.60
2023-02-23T06:46:06.554Z,7.10
2023-02-23T06:48:57.973Z,7.70
2023-02-23T06:51:28.688Z,6.80
2023-02-23T06:53:56.771Z,7.20
2023-02-23T06:56:26.880Z,7.00
2023-02-23T06:59:04.374Z,6.90
2023-02-23T07:01:31.682Z,7.10
2023-02-23T07:04:05.671Z,7.20
2023-02-23T07:06:35.347Z,7.70
2023-02-23T07:09:05.719Z,7.20
2023-02-23T07:11:34.062Z,7.80
2023-02-23T07:14:26.862Z,7.30
2023-02-23T07:16:58.616Z,7.50
2023-02-23T07:19:42.393Z,7.50
2023-02-23T07:22:30.745Z,6.90
2023-02-23T07:25:18.328Z,7.80
2023-02-23T07:27:57.099Z,7.00
2023-02-23T07:30:45.223Z,7.40
2023-02-23T07:33:32.915Z,7.60
2023-02-23T07:36:21.007Z,7.70
2023-02-23T07:39:02.437Z,8.00
2023-02-23T07:41:34.973Z,7.30
2023-02-23T07:44:08.456Z,7.20
2023-02-23T07:46:46.724Z,7.90
2023-02-23T07:49:14.559Z,7.50
2023-02-23T07:51:42.220Z,7.20
2023-02-23T07:54:13.724Z,7.60
2023-02-23T07:56:54.241Z,7.60
2023-02-23T07:59:42.051Z,7.10
2023-02-23T08:02:30.442Z,7.60
2023-02-23T08:05:00.638Z,7.50
2023-02-23T08:07:48.097Z,7.20
2023-02-23T08:10:26.843Z,7.20
2023-02-23T08:13:07.144Z,7.40
2023-02-23T08:15:34.744Z,7.10
2023-02-23T08:18:12.940Z,7.50
2023-02-23T08:20:40.274Z,7.60
2023-02-23T08:23:18.486Z,7.60
2023-02-23T08:25:58.180Z,7.30
2023-02-23T08:28:46.835Z,7.70
2023-02-23T08:31:26.495Z,7.00
2023-02-23T08:33:54.487Z,7.50
2023-02-23T08:36:45.625Z,7.90
2023-02-23T08:39:34.181Z,8.40
2023-02-23T08:42:01.612Z,7.20
2023-02-23T08:44:28.896Z,7.60
2023-02-23T08:46:58.630Z,7.50
2023-02-23T08:49:27.602Z,7.80
2023-02-23T08:51:55.122Z,7.60
2023-02-23T08:54:23.021Z,7.90
2023-02-23T08:56:50.813Z,7.50
2023-02-23T08:59:18.569Z,7.80
2023-02-23T09:02:07.666Z,8.00
2023-02-23T09:04:45.175Z,8.50
2023-02-23T09:07:18.264Z,8.20
2023-02-23T09:09:45.572Z,8.20
2023-02-23T09:12:15.776Z,8.00
2023-02-23T09:14:42.913Z,7.90
2023-02-23T09:17:23.071Z,7.70
2023-02-23T09:20:13.897Z,7.90
2023-02-23T09:22:52.272Z,7.60
2023-02-23T09:25:23.167Z,8.20
2023-02-23T09:28:13.229Z,8.30
2023-02-23T09:30:45.129Z,8.00
2023-02-23T09:33:32.683Z,7.50
2023-02-23T09:36:16.587Z,8.10
2023-02-23T09:38:57.942Z,8.50
2023-02-23T09:42:09.650Z,8.30
2023-02-23T09:45:14.270Z,8.40
2023-02-23T09:48:08.364Z,8.30
2023-02-23T09:50:50.226Z,8.70
2023-02-23T09:53:40.108Z,7.90
2023-02-23T09:56:24.856Z,8.40
2023-02-23T09:59:04.203Z,10.20
2023-02-23T10:01:46.531Z,8.20
2023-02-23T10:04:39.941Z,8.30
2023-02-23T10:07:35.988Z,7.70
2023-02-23T10:10:30.106Z,8.00
2023-02-23T10:13:05.862Z,8.90
2023-02-23T10:15:59.859Z,8.30
2023-02-23T10:18:48.244Z,8.80
2023-02-23T10:21:35.769Z,8.60
2023-02-23T10:24:12.772Z,7.50
2023-02-23T10:27:06.180Z,7.90
2023-02-23T10:29:42.743Z,8.80
2023-02-23T10:32:39.252Z,8.30
2023-02-23T10:35:29.483Z,8.60
2023-02-23T10:38:02.305Z,9.30
2023-02-23T10:40:33.201Z,9.00
2023-02-23T10:43:13.021Z,8.70
2023-02-23T10:45:44.840Z,8.60
2023-02-23T10:48:26.168Z,9.20
2023-02-23T10:51:00.538Z,8.50
2023-02-23T10:53:40.757Z,8.60
2023-02-23T10:56:22.111Z,8.60
2023-02-23T10:59:01.354Z,8.80
2023-02-23T11:02:01.078Z,9.20
2023-02-23T11:04:32.936Z,9.70
2023-02-23T11:07:16.612Z,9.20
2023-02-23T11:09:55.927Z,9.50
2023-02-23T11:12:28.543Z,9.30
2023-02-23T11:15:49.282Z,9.20
2023-02-23T11:18:30.006Z,8.70
2023-02-23T11:21:13.950Z,9.20
2023-02-23T11:23:54.527Z,9.60
2023-02-23T11:26:45.102Z,9.30
2023-02-23T11:29:36.413Z,9.60
2023-02-23T11:32:10.391Z,9.90
2023-02-23T11:35:31.560Z,9.50
2023-02-23T11:38:27.775Z,9.20
2023-02-23T11:41:26.047Z,9.30
2023-02-23T11:44:23.537Z,9.40
2023-02-23T11:47:04.564Z,9.10
2023-02-23T11:49:39.811Z,9.30
2023-02-23T11:52:16.131Z,9.50
2023-02-23T11:55:08.509Z,9.40
2023-02-23T11:57:49.503Z,9.40
2023-02-23T12:00:29.035Z,8.80
2023-02-23T12:03:25.997Z,8.80
2023-02-23T12:05:59.418Z,8.80
2023-02-23T12:08:51.830Z,9.50
2023-02-23T12:11:46.578Z,8.80
2023-02-23T12:14:33.459Z,8.90
2023-02-23T12:17:17.554Z,8.20
2023-02-23T12:20:12.394Z,8.40
2023-02-23T12:23:04.179Z,8.20
2023-02-23T12:25:49.044Z,8.70
2023-02-23T12:28:34.517Z,8.20
2023-02-23T12:31:30.108Z,8.70
2023-02-23T12:34:24.236Z,8.50
2023-02-23T12:36:59.581Z,8.20
2023-02-23T12:39:52.306Z,8.00
2023-02-23T12:42:26.062Z,8.30
2023-02-23T12:44:58.281Z,7.70
2023-02-23T12:47:42.076Z,8.30
2023-02-23T12:50:28.943Z,8.20
2023-02-23T12:53:23.276Z,8.70
2023-02-23T12:56:24.630Z,8.60
2023-02-23T12:59:36.174Z,8.10
2023-02-23T13:02:31.617Z,8.10
2023-02-23T13:05:28.606Z,8.50
2023-02-23T13:08:34.844Z,8.70
2023-02-23T13:11:36.875Z,8.60
2023-02-23T13:14:15.087Z,8.90
2023-02-23T13:17:09.391Z,8.30
2023-02-23T13:19:49.858Z,8.00
2023-02-23T13:22:43.516Z,8.30
2023-02-23T13:25:41.853Z,8.10
2023-02-23T13:28:40.751Z,8.20
2023-02-23T13:31:25.056Z,7.80
2023-02-23T13:34:18.770Z,9.30
2023-02-23T13:37:10.616Z,8.00
2023-02-23T13:40:03.754Z,8.20
2023-02-23T13:42:50.167Z,7.70
2023-02-23T13:45:49.968Z,7.70
2023-02-23T13:48:56.816Z,7.90
2023-02-23T13:51:48.435Z,8.10
2023-02-23T13:54:38.052Z,7.90
2023-02-23T13:57:28.543Z,8.30
2023-02-23T14:00:17.280Z,8.20
2023-02-23T14:05:57.866Z,8.20
2023-02-23T14:08:47.435Z,7.90
2023-02-23T14:11:54.811Z,7.80
2023-02-23T14:14:44.607Z,8.20
2023-02-23T14:18:07.399Z,8.10
2023-02-23T14:20:55.401Z,7.80
2023-02-23T14:24:03.460Z,8.30
2023-02-23T14:27:34.190Z,7.90
2023-02-23T14:30:29.306Z,9.10
2023-02-23T14:33:21.273Z,8.50
2023-02-23T14:36:45.719Z,8.10
2023-02-23T14:39:36.030Z,8.10
2023-02-23T14:42:28.221Z,8.40
2023-02-23T14:44:56.923Z,8.30
2023-02-23T14:47:29.269Z,8.60
2023-02-23T14:50:25.767Z,8.20
2023-02-23T14:52:58.823Z,7.90
2023-02-23T14:55:46.675Z,8.10
2023-02-23T14:58:30.223Z,8.30
2023-02-23T15:01:07.654Z,8.80
2023-02-23T15:03:35.154Z,8.90
2023-02-23T15:06:06.588Z,8.60
2023-02-23T15:08:54.319Z,9.30
2023-02-23T15:11:44.051Z,8.90
2023-02-23T15:14:28.136Z,9.10
2023-02-23T15:17:20.823Z,9.20
2023-02-23T15:20:14.883Z,9.10
2023-02-23T15:23:07.150Z,9.20
2023-02-23T15:26:07.737Z,9.60
2023-02-23T15:28:57.132Z,9.90
2023-02-23T15:31:37.079Z,9.00
2023-02-23T15:34:04.518Z,9.50
2023-02-23T15:36:39.162Z,10.50
2023-02-23T15:39:15.536Z,10.40
2023-02-23T15:41:54.302Z,9.70
2023-02-23T15:44:27.587Z,10.00
2023-02-23T15:47:02.732Z,8.90
2023-02-23T15:49:42.143Z,9.40
2023-02-23T15:52:35.583Z,9.70
2023-02-23T15:55:28.161Z,10.10
2023-02-23T15:58:15.971Z,9.50
2023-02-23T16:01:10.809Z,9.60
2023-02-23T16:04:04.102Z,10.10
2023-02-23T16:06:57.293Z,9.30
2023-02-23T16:09:52.080Z,10.20
2023-02-23T16:12:41.394Z,10.80
2023-02-23T16:15:29.802Z,11.30
2023-02-23T16:18:17.258Z,12.10
2023-02-23T16:21:06.173Z,10.90
2023-02-23T16:23:54.673Z,10.60
2023-02-23T16:26:47.365Z,9.90
2023-02-23T16:29:41.717Z,10.90
2023-02-23T16:32:38.080Z,11.90
2023-02-23T16:35:25.649Z,11.50
2023-02-23T16:38:12.876Z,11.80
2023-02-23T16:41:01.079Z,11.30
2023-02-23T16:43:51.500Z,11.20
2023-02-23T16:46:58.176Z,11.80
2023-02-23T16:49:37.491Z,11.50
2023-02-23T16:52:20.008Z,11.40
2023-02-23T16:55:08.175Z,11.50
2023-02-23T16:57:58.801Z,12.00
2023-02-23T17:00:37.408Z,12.80
2023-02-23T17:03:21.462Z,13.30
2023-02-23T17:06:09.903Z,13.80
2023-02-23T17:08:58.385Z,12.50
2023-02-23T17:11:39.136Z,12.20
2023-02-23T17:14:06.701Z,12.90
2023-02-23T17:16:54.335Z,13.20
2023-02-23T17:19:43.062Z,13.20
2023-02-23T17:22:30.918Z,13.80
2023-02-23T17:25:18.790Z,15.10
2023-02-23T17:27:57.181Z,15.50
2023-02-23T17:30:39.397Z,14.80
2023-02-23T17:33:28.365Z,14.80
2023-02-23T17:36:09.167Z,14.90
2023-02-23T17:38:58.920Z,16.60
2023-02-23T17:41:46.643Z,15.90
2023-02-23T17:44:34.686Z,15.70
2023-02-23T17:47:02.342Z,15.50
2023-02-23T17:49:41.996Z,17.10
2023-02-23T17:52:30.063Z,17.60
2023-02-23T17:55:19.149Z,17.70
2023-02-23T17:58:06.689Z,16.50
2023-02-23T18:00:56.803Z,17.20
2023-02-23T18:03:33.465Z,16.00
2023-02-23T18:06:21.040Z,17.80
2023-02-23T18:09:08.430Z,17.30
2023-02-23T18:11:56.852Z,17.70
2023-02-23T18:14:43.068Z,18.70
2023-02-23T18:17:10.480Z,18.40
2023-02-23T18:19:37.903Z,18.80
2023-02-23T18:22:08.457Z,18.70
2023-02-23T18:24:45.772Z,19.10
2023-02-23T18:27:33.170Z,19.10
2023-02-23T18:30:04.164Z,18.50
2023-02-23T18:32:31.391Z,18.20
2023-02-23T18:35:19.276Z,18.50
2023-02-23T18:38:10.332Z,17.50
2023-02-23T18:40:58.992Z,18.40
2023-02-23T18:43:46.684Z,19.20
2023-02-23T18:46:34.744Z,19.00
